sensor_id;sensor_type;location;lat;lon;timestamp;pressure;altitude;pressure_sealevel;temperature;humidity
31775;BME280;66189;49.000;11.640;2023-05-29T00:01:59;96031.22;;;13.29;52.74
31775;BME280;66189;49.000;11.640;2023-05-29T00:04:00;96033.91;;;13.29;53.37
31775;BME280;66189;49.000;11.640;2023-05-29T00:06:03;96035.44;;;13.26;53.62
31775;BME280;66189;49.000;11.640;2023-05-29T00:08:04;96040.09;;;13.29;54.00
31775;BME280;66189;49.000;11.640;2023-05-29T00:10:06;96033.88;;;13.25;53.84
31775;BME280;66189;49.000;11.640;2023-05-29T00:12:08;96035.03;;;13.24;54.19
31775;BME280;66189;49.000;11.640;2023-05-29T00:14:08;96033.91;;;13.29;53.78
31775;BME280;66189;49.000;11.640;2023-05-29T00:16:13;96037.00;;;13.31;54.34
31775;BME280;66189;49.000;11.640;2023-05-29T00:18:14;96041.56;;;13.23;54.68
31775;BME280;66189;49.000;11.640;2023-05-29T00:20:14;96038.13;;;13.26;53.85
31775;BME280;66189;49.000;11.640;2023-05-29T00:22:15;96033.91;;;13.29;53.97
31775;BME280;66189;49.000;11.640;2023-05-29T00:24:16;96045.41;;;13.19;54.79
31775;BME280;66189;49.000;11.640;2023-05-29T00:26:17;96036.53;;;13.22;54.54
31775;BME280;66189;49.000;11.640;2023-05-29T00:28:20;96037.31;;;13.22;53.99
31775;BME280;66189;49.000;11.640;2023-05-29T00:30:21;96035.41;;;13.23;54.28
31775;BME280;66189;49.000;11.640;2023-05-29T00:32:21;96038.34;;;13.07;54.82
31775;BME280;66189;49.000;11.640;2023-05-29T00:34:22;96029.00;;;12.97;54.69
31775;BME280;66189;49.000;11.640;2023-05-29T00:36:25;96031.88;;;12.77;55.22
31775;BME280;66189;49.000;11.640;2023-05-29T00:38:26;96036.66;;;12.57;56.13
31775;BME280;66189;49.000;11.640;2023-05-29T00:40:26;96037.91;;;12.67;55.67
31775;BME280;66189;49.000;11.640;2023-05-29T00:42:27;96041.69;;;12.59;55.90
31775;BME280;66189;49.000;11.640;2023-05-29T00:44:27;96042.56;;;12.67;55.52
31775;BME280;66189;49.000;11.640;2023-05-29T00:46:30;96038.53;;;12.53;56.01
31775;BME280;66189;49.000;11.640;2023-05-29T00:48:31;96037.56;;;12.35;56.64
31775;BME280;66189;49.000;11.640;2023-05-29T00:50:31;96042.31;;;12.45;56.38
31775;BME280;66189;49.000;11.640;2023-05-29T00:52:32;96037.13;;;12.33;56.77
31775;BME280;66189;49.000;11.640;2023-05-29T12:59:21;96125.50;;;26.66;25.14
31775;BME280;66189;49.000;11.640;2023-05-29T13:01:22;96134.69;;;26.82;24.61
31775;BME280;66189;49.000;11.640;2023-05-29T13:03:24;96118.38;;;26.19;24.75
31775;BME280;66189;49.000;11.640;2023-05-29T13:05:24;96121.84;;;26.69;23.86
31775;BME280;66189;49.000;11.640;2023-05-29T13:07:25;96121.78;;;26.51;23.82
31775;BME280;66189;49.000;11.640;2023-05-29T13:09:28;96125.16;;;26.27;24.66
31775;BME280;66189;49.000;11.640;2023-05-29T13:11:28;96117.59;;;26.09;25.02
31775;BME280;66189;49.000;11.640;2023-05-29T13:13:29;96114.94;;;25.96;25.30
31775;BME280;66189;49.000;11.640;2023-05-29T13:15:29;96118.56;;;26.43;24.82
31775;BME280;66189;49.000;11.640;2023-05-29T13:17:30;96123.06;;;26.68;24.70
31775;BME280;66189;49.000;11.640;2023-05-29T13:19:31;96116.25;;;26.60;23.30
31775;BME280;66189;49.000;11.640;2023-05-29T13:21:32;96113.50;;;26.41;23.30
31775;BME280;66189;49.000;11.640;2023-05-29T13:23:35;96114.59;;;25.76;23.32
31775;BME280;66189;49.000;11.640;2023-05-29T13:25:35;96111.19;;;26.31;23.22
31775;BME280;66189;49.000;11.640;2023-05-29T13:27:37;96117.06;;;26.51;23.76
31775;BME280;66189;49.000;11.640;2023-05-29T13:29:38;96112.28;;;26.61;22.35
31775;BME280;66189;49.000;11.640;2023-05-29T13:31:38;96108.50;;;25.90;19.85
31775;BME280;66189;49.000;11.640;2023-05-29T13:33:39;96111.50;;;25.33;23.49
31775;BME280;66189;49.000;11.640;2023-05-29T13:35:40;96113.69;;;25.47;24.12
31775;BME280;66189;49.000;11.640;2023-05-29T13:37:40;96108.03;;;25.42;20.34
31775;BME280;66189;49.000;11.640;2023-05-29T13:39:40;96101.56;;;25.35;22.79
31775;BME280;66189;49.000;11.640;2023-05-29T13:41:41;96111.22;;;25.40;23.08
31775;BME280;66189;49.000;11.640;2023-05-29T13:43:41;96106.78;;;24.89;22.29
31775;BME280;66189;49.000;11.640;2023-05-29T13:45:42;96101.88;;;25.15;24.09
31775;BME280;66189;49.000;11.640;2023-05-29T13:47:42;96096.53;;;24.90;26.63
31775;BME280;66189;49.000;11.640;2023-05-29T13:49:43;96098.91;;;24.78;24.19
31775;BME280;66189;49.000;11.640;2023-05-29T13:51:43;96098.09;;;24.91;26.70
31775;BME280;66189;49.000;11.640;2023-05-29T13:53:46;96105.53;;;24.81;24.60
31775;BME280;66189;49.000;11.640;2023-05-29T13:55:47;96097.03;;;24.97;25.80
31775;BME280;66189;49.000;11.640;2023-05-29T13:57:47;96093.72;;;25.03;23.94
31775;BME280;66189;49.000;11.640;2023-05-29T13:59:48;96091.53;;;25.19;24.82
31775;BME280;66189;49.000;11.640;2023-05-29T14:01:48;96095.47;;;25.41;24.58
31775;BME280;66189;49.000;11.640;2023-05-29T14:03:48;96088.66;;;25.64;25.55
31775;BME280;66189;49.000;11.640;2023-05-29T14:05:49;96086.66;;;25.55;25.33
31775;BME280;66189;49.000;11.640;2023-05-29T14:07:49;96090.19;;;26.05;24.12
31775;BME280;66189;49.000;11.640;2023-05-29T14:09:50;96085.75;;;26.27;23.19
31775;BME280;66189;49.000;11.640;2023-05-29T14:11:51;96082.69;;;26.06;22.07
31775;BME280;66189;49.000;11.640;2023-05-29T14:13:51;96081.94;;;26.15;21.74
31775;BME280;66189;49.000;11.640;2023-05-29T14:15:51;96084.88;;;26.67;22.68
31775;BME280;66189;49.000;11.640;2023-05-29T14:17:55;96078.81;;;27.05;21.58
31775;BME280;66189;49.000;11.640;2023-05-29T14:19:55;96087.44;;;27.07;22.56
31775;BME280;66189;49.000;11.640;2023-05-29T14:21:55;96087.44;;;26.98;21.23
31775;BME280;66189;49.000;11.640;2023-05-29T14:23:56;96084.19;;;27.09;23.46
31775;BME280;66189;49.000;11.640;2023-05-29T14:25:56;96076.75;;;26.72;22.27
31775;BME280;66189;49.000;11.640;2023-05-29T14:27:57;96083.63;;;26.95;22.52
31775;BME280;66189;49.000;11.640;2023-05-29T14:29:57;96082.63;;;27.17;23.85
31775;BME280;66189;49.000;11.640;2023-05-29T14:31:58;96083.94;;;26.79;21.58
31775;BME280;66189;49.000;11.640;2023-05-29T14:33:58;96079.59;;;27.15;23.47
31775;BME280;66189;49.000;11.640;2023-05-29T14:35:59;96083.66;;;27.38;23.74
31775;BME280;66189;49.000;11.640;2023-05-29T14:38:01;96082.19;;;27.61;23.07
31775;BME280;66189;49.000;11.640;2023-05-29T14:40:02;96089.97;;;27.29;22.90
31775;BME280;66189;49.000;11.640;2023-05-29T14:42:02;96078.44;;;27.40;23.25
31775;BME280;66189;49.000;11.640;2023-05-29T14:44:03;96069.81;;;26.95;23.31
31775;BME280;66189;49.000;11.640;2023-05-29T14:46:03;96068.59;;;26.87;22.57
31775;BME280;66189;49.000;11.640;2023-05-29T14:48:04;96074.28;;;26.47;21.84
31775;BME280;66189;49.000;11.640;2023-05-29T14:50:05;96076.06;;;27.05;22.67
31775;BME280;66189;49.000;11.640;2023-05-29T14:52:06;96079.78;;;26.65;22.48
31775;BME280;66189;49.000;11.640;2023-05-29T14:54:06;96079.63;;;26.97;21.61
31775;BME280;66189;49.000;11.640;2023-05-29T14:56:07;96078.28;;;26.46;22.71
31775;BME280;66189;49.000;11.640;2023-05-29T14:58:07;96071.38;;;26.13;21.56
31775;BME280;66189;49.000;11.640;2023-05-29T15:00:08;96069.84;;;26.31;23.71
31775;BME280;66189;49.000;11.640;2023-05-29T15:02:09;96066.59;;;26.51;23.60
31775;BME280;66189;49.000;11.640;2023-05-29T15:04:09;96064.56;;;25.96;23.62
31775;BME280;66189;49.000;11.640;2023-05-29T15:06:10;96060.09;;;25.80;22.70
31775;BME280;66189;49.000;11.640;2023-05-29T15:08:13;96066.63;;;26.41;23.66
31775;BME280;66189;49.000;11.640;2023-05-29T15:10:14;96062.19;;;26.16;20.84
31775;BME280;66189;49.000;11.640;2023-05-29T15:12:17;96054.59;;;25.80;21.63
31775;BME280;66189;49.000;11.640;2023-05-29T15:14:17;96054.75;;;25.85;22.96
31775;BME280;66189;49.000;11.640;2023-05-29T15:16:18;96062.84;;;25.80;25.36
31775;BME280;66189;49.000;11.640;2023-05-29T15:18:19;96060.03;;;25.61;23.59
31775;BME280;66189;49.000;11.640;2023-05-29T15:20:20;96055.19;;;25.75;23.72
31775;BME280;66189;49.000;11.640;2023-05-29T15:22:20;96051.00;;;26.29;23.94
31775;BME280;66189;49.000;11.640;2023-05-29T15:24:21;96052.59;;;25.80;22.80
31775;BME280;66189;49.000;11.640;2023-05-29T15:26:21;96049.44;;;26.19;23.63
31775;BME280;66189;49.000;11.640;2023-05-29T15:28:21;96047.78;;;26.31;24.65
31775;BME280;66189;49.000;11.640;2023-05-29T15:30:22;96051.16;;;26.44;22.27
31775;BME280;66189;49.000;11.640;2023-05-29T15:32:23;96044.06;;;26.62;22.42
31775;BME280;66189;49.000;11.640;2023-05-29T15:34:23;96043.59;;;26.63;22.19
31775;BME280;66189;49.000;11.640;2023-05-29T15:36:23;96037.66;;;26.46;23.33
31775;BME280;66189;49.000;11.640;2023-05-29T15:38:24;96040.88;;;25.98;23.83
31775;BME280;66189;49.000;11.640;2023-05-29T15:40:24;96039.28;;;25.97;23.32
31775;BME280;66189;49.000;11.640;2023-05-29T15:42:27;96042.72;;;26.20;24.18
31775;BME280;66189;49.000;11.640;2023-05-29T15:44:27;96043.59;;;26.63;24.20
31775;BME280;66189;49.000;11.640;2023-05-29T15:46:29;96038.28;;;26.22;25.14
31775;BME280;66189;49.000;11.640;2023-05-29T15:48:30;96041.97;;;26.29;23.35
31775;BME280;66189;49.000;11.640;2023-05-29T15:50:30;96036.50;;;25.79;24.35
31775;BME280;66189;49.000;11.640;2023-05-29T15:52:31;96039.78;;;25.46;24.50
31775;BME280;66189;49.000;11.640;2023-05-29T15:54:31;96031.84;;;25.48;25.41
31775;BME280;66189;49.000;11.640;2023-05-29T15:56:32;96037.72;;;25.78;24.54
31775;BME280;66189;49.000;11.640;2023-05-29T15:58:32;96035.16;;;25.93;24.94
31775;BME280;66189;49.000;11.640;2023-05-29T16:00:33;96037.00;;;25.96;23.66
31775;BME280;66189;49.000;11.640;2023-05-29T16:02:34;96040.31;;;25.72;22.95
31775;BME280;66189;49.000;11.640;2023-05-29T16:04:34;96035.53;;;25.45;23.96
31775;BME280;66189;49.000;11.640;2023-05-29T16:06:35;96035.66;;;25.41;23.12
31775;BME280;66189;49.000;11.640;2023-05-29T16:08:36;96040.44;;;25.59;23.14
31775;BME280;66189;49.000;11.640;2023-05-29T16:10:38;96034.06;;;25.31;23.68
31775;BME280;66189;49.000;11.640;2023-05-29T16:12:42;96037.06;;;25.55;24.33
31775;BME280;66189;49.000;11.640;2023-05-29T16:14:44;96032.47;;;25.61;24.25
31775;BME280;66189;49.000;11.640;2023-05-29T16:16:45;96038.16;;;25.58;23.91
31775;BME280;66189;49.000;11.640;2023-05-29T16:18:45;96038.50;;;25.78;24.27
31775;BME280;66189;49.000;11.640;2023-05-29T16:20:46;96036.34;;;25.73;24.38
31775;BME280;66189;49.000;11.640;2023-05-29T16:22:46;96030.34;;;25.65;24.62
31775;BME280;66189;49.000;11.640;2023-05-29T16:24:46;96036.50;;;25.79;24.46
31775;BME280;66189;49.000;11.640;2023-05-29T16:26:47;96029.66;;;25.33;23.64
31775;BME280;66189;49.000;11.640;2023-05-29T16:28:47;96026.66;;;25.18;24.57
31775;BME280;66189;49.000;11.640;2023-05-29T16:30:48;96031.78;;;25.29;24.04
31775;BME280;66189;49.000;11.640;2023-05-29T16:32:48;96033.53;;;24.82;25.41
31775;BME280;66189;49.000;11.640;2023-05-29T16:34:49;96034.16;;;25.18;24.92
31775;BME280;66189;49.000;11.640;2023-05-29T16:36:50;96030.94;;;25.19;24.62
31775;BME280;66189;49.000;11.640;2023-05-29T16:38:50;96025.88;;;25.09;25.95
31775;BME280;66189;49.000;11.640;2023-05-29T16:40:51;96029.69;;;25.11;25.79
31775;BME280;66189;49.000;11.640;2023-05-29T16:42:51;96023.59;;;25.16;26.17
31775;BME280;66189;49.000;11.640;2023-05-29T16:44:52;96023.16;;;25.18;25.07
31775;BME280;66189;49.000;11.640;2023-05-29T16:46:52;96026.94;;;25.43;25.60
31775;BME280;66189;49.000;11.640;2023-05-29T16:48:53;96020.78;;;25.39;26.63
31775;BME280;66189;49.000;11.640;2023-05-29T16:50:53;96025.06;;;25.08;26.09
31775;BME280;66189;49.000;11.640;2023-05-29T16:52:53;96023.91;;;25.18;25.37
31775;BME280;66189;49.000;11.640;2023-05-29T16:54:54;96025.25;;;25.14;25.20
31775;BME280;66189;49.000;11.640;2023-05-29T16:56:57;96030.22;;;24.97;24.56
31775;BME280;66189;49.000;11.640;2023-05-29T16:58:58;96035.56;;;24.47;25.15
31775;BME280;66189;49.000;11.640;2023-05-29T17:00:59;96035.31;;;24.76;25.40
31775;BME280;66189;49.000;11.640;2023-05-29T17:02:59;96042.81;;;24.76;24.79
31775;BME280;66189;49.000;11.640;2023-05-29T17:05:00;96035.00;;;24.52;24.73
31775;BME280;66189;49.000;11.640;2023-05-29T17:07:01;96041.44;;;24.36;25.04
31775;BME280;66189;49.000;11.640;2023-05-29T17:09:02;96035.19;;;24.36;26.05
31775;BME280;66189;49.000;11.640;2023-05-29T17:11:03;96044.78;;;23.96;26.00
31775;BME280;66189;49.000;11.640;2023-05-29T17:13:04;96041.03;;;23.77;25.52
31775;BME280;66189;49.000;11.640;2023-05-29T17:15:06;96035.56;;;23.64;25.64
31775;BME280;66189;49.000;11.640;2023-05-29T17:17:06;96047.31;;;23.65;25.24
31775;BME280;66189;49.000;11.640;2023-05-29T17:19:07;96039.66;;;23.59;25.34
31775;BME280;66189;49.000;11.640;2023-05-29T17:21:07;96047.19;;;23.68;25.76
31775;BME280;66189;49.000;11.640;2023-05-29T17:23:08;96046.75;;;23.70;26.45
31775;BME280;66189;49.000;11.640;2023-05-29T17:25:08;96050.28;;;23.57;25.39
31775;BME280;66189;49.000;11.640;2023-05-29T17:27:09;96048.00;;;23.43;25.59
31775;BME280;66189;49.000;11.640;2023-05-29T17:29:09;96057.56;;;23.38;25.40
31775;BME280;66189;49.000;11.640;2023-05-29T17:31:10;96058.53;;;23.32;27.08
31775;BME280;66189;49.000;11.640;2023-05-29T17:33:10;96048.34;;;23.32;27.57
31775;BME280;66189;49.000;11.640;2023-05-29T17:35:10;96050.38;;;23.02;25.46
31775;BME280;66189;49.000;11.640;2023-05-29T17:37:14;96047.44;;;23.10;26.08
31775;BME280;66189;49.000;11.640;2023-05-29T17:39:14;96051.00;;;22.94;26.15
31775;BME280;66189;49.000;11.640;2023-05-29T17:41:15;96045.66;;;23.03;26.78
31775;BME280;66189;49.000;11.640;2023-05-29T17:43:15;96048.03;;;22.88;25.87
31775;BME280;66189;49.000;11.640;2023-05-29T17:45:15;96050.09;;;22.71;27.15
31775;BME280;66189;49.000;11.640;2023-05-29T17:47:16;96042.03;;;22.93;27.37
31775;BME280;66189;49.000;11.640;2023-05-29T17:49:17;96047.69;;;22.73;26.69
31775;BME280;66189;49.000;11.640;2023-05-29T17:51:18;96042.97;;;22.86;27.47
31775;BME280;66189;49.000;11.640;2023-05-29T17:53:22;96047.13;;;22.65;26.94
31775;BME280;66189;49.000;11.640;2023-05-29T17:55:22;96049.06;;;22.52;27.38
31775;BME280;66189;49.000;11.640;2023-05-29T17:57:24;96045.63;;;22.35;27.08
31775;BME280;66189;49.000;11.640;2023-05-29T17:59:24;96040.66;;;22.13;27.82
31775;BME280;66189;49.000;11.640;2023-05-29T18:01:25;96050.66;;;22.20;26.82
31775;BME280;66189;49.000;11.640;2023-05-29T18:03:25;96045.63;;;22.18;27.88
31775;BME280;66189;49.000;11.640;2023-05-29T18:05:27;96052.00;;;21.99;28.78
31775;BME280;66189;49.000;11.640;2023-05-29T18:07:27;96050.81;;;21.83;29.25
31775;BME280;66189;49.000;11.640;2023-05-29T18:09:28;96049.59;;;21.85;28.51
31775;BME280;66189;49.000;11.640;2023-05-29T18:11:28;96052.00;;;21.82;28.83
31775;BME280;66189;49.000;11.640;2023-05-29T18:13:29;96055.66;;;21.92;29.21
31775;BME280;66189;49.000;11.640;2023-05-29T18:15:29;96056.09;;;21.91;30.71
31775;BME280;66189;49.000;11.640;2023-05-29T18:17:30;96053.03;;;21.89;31.94
31775;BME280;66189;49.000;11.640;2023-05-29T18:19:30;96051.84;;;21.73;32.46
31775;BME280;66189;49.000;11.640;2023-05-29T18:21:30;96053.56;;;21.67;32.37
31775;BME280;66189;49.000;11.640;2023-05-29T18:23:31;96051.41;;;21.58;33.25
31775;BME280;66189;49.000;11.640;2023-05-29T18:25:32;96053.53;;;21.51;33.29
31775;BME280;66189;49.000;11.640;2023-05-29T18:27:34;96056.56;;;21.36;32.82
31775;BME280;66189;49.000;11.640;2023-05-29T18:29:35;96059.53;;;21.25;33.22
31775;BME280;66189;49.000;11.640;2023-05-29T18:31:35;96054.59;;;21.20;33.63
31775;BME280;66189;49.000;11.640;2023-05-29T18:33:36;96056.28;;;21.14;34.46
31775;BME280;66189;49.000;11.640;2023-05-29T18:35:36;96056.44;;;21.07;34.74
31775;BME280;66189;49.000;11.640;2023-05-29T18:37:37;96058.66;;;20.96;35.23
31775;BME280;66189;49.000;11.640;2023-05-29T18:39:37;96053.31;;;20.88;35.16
31775;BME280;66189;49.000;11.640;2023-05-29T18:41:37;96058.81;;;20.68;34.44
31775;BME280;66189;49.000;11.640;2023-05-29T18:43:38;96058.06;;;20.64;34.72
31775;BME280;66189;49.000;11.640;2023-05-29T18:45:38;96056.91;;;20.65;34.85
31775;BME280;66189;49.000;11.640;2023-05-29T18:47:40;96047.69;;;20.55;35.14
31775;BME280;66189;49.000;11.640;2023-05-29T18:49:42;96057.88;;;20.55;33.84
31775;BME280;66189;49.000;11.640;2023-05-29T18:51:42;96057.16;;;20.31;33.66
31775;BME280;66189;49.000;11.640;2023-05-29T18:53:42;96062.47;;;19.94;35.38
31775;BME280;66189;49.000;11.640;2023-05-29T18:55:44;96060.19;;;19.65;33.44
31775;BME280;66189;49.000;11.640;2023-05-29T18:57:45;96061.97;;;19.76;34.36
31775;BME280;66189;49.000;11.640;2023-05-29T18:59:45;96071.31;;;19.78;35.84
31775;BME280;66189;49.000;11.640;2023-05-29T19:01:47;96075.38;;;19.66;38.44
31775;BME280;66189;49.000;11.640;2023-05-29T19:03:47;96068.03;;;19.63;37.48
31775;BME280;66189;49.000;11.640;2023-05-29T19:05:48;96074.69;;;19.35;37.52
31775;BME280;66189;49.000;11.640;2023-05-29T19:07:49;96073.13;;;19.34;37.61
31775;BME280;66189;49.000;11.640;2023-05-29T19:09:50;96079.75;;;19.06;35.98
31775;BME280;66189;49.000;11.640;2023-05-29T19:11:52;96081.53;;;19.20;36.41
31775;BME280;66189;49.000;11.640;2023-05-29T19:13:53;96076.47;;;18.87;35.59
31775;BME280;66189;49.000;11.640;2023-05-29T19:15:53;96080.22;;;18.66;35.35
31775;BME280;66189;49.000;11.640;2023-05-29T19:17:54;96079.75;;;18.71;35.74
31775;BME280;66189;49.000;11.640;2023-05-29T19:19:55;96084.31;;;18.81;36.39
31775;BME280;66189;49.000;11.640;2023-05-29T19:21:55;96089.09;;;18.74;36.34
31775;BME280;66189;49.000;11.640;2023-05-29T19:23:56;96084.44;;;18.71;37.89
31775;BME280;66189;49.000;11.640;2023-05-29T19:25:56;96078.34;;;18.59;38.37
31775;BME280;66189;49.000;11.640;2023-05-29T19:27:57;96086.19;;;18.54;39.05
31775;BME280;66189;49.000;11.640;2023-05-29T19:29:58;96096.38;;;18.50;39.04
31775;BME280;66189;49.000;11.640;2023-05-29T19:31:59;96091.75;;;18.43;39.00
31775;BME280;66189;49.000;11.640;2023-05-29T19:33:59;96100.78;;;18.36;38.35
31775;BME280;66189;49.000;11.640;2023-05-29T19:36:00;96097.31;;;18.32;39.11
31775;BME280;66189;49.000;11.640;2023-05-29T19:38:00;96102.06;;;18.24;39.74
31775;BME280;66189;49.000;11.640;2023-05-29T19:40:02;96101.63;;;18.29;38.51
31775;BME280;66189;49.000;11.640;2023-05-29T19:42:03;96102.34;;;17.92;37.60
31775;BME280;66189;49.000;11.640;2023-05-29T19:44:06;96102.56;;;18.12;37.32
31775;BME280;66189;49.000;11.640;2023-05-29T19:46:08;96101.81;;;18.08;37.40
31775;BME280;66189;49.000;11.640;2023-05-29T19:48:08;96111.56;;;18.05;37.43
31775;BME280;66189;49.000;11.640;2023-05-29T19:50:09;96116.22;;;18.08;37.82
31775;BME280;66189;49.000;11.640;2023-05-29T19:52:12;96112.41;;;17.99;37.67
31775;BME280;66189;49.000;11.640;2023-05-29T19:54:13;96116.34;;;17.90;37.76
31775;BME280;66189;49.000;11.640;2023-05-29T19:56:14;96119.94;;;17.76;36.51
31775;BME280;66189;49.000;11.640;2023-05-29T19:58:14;96123.47;;;17.73;37.73
31775;BME280;66189;49.000;11.640;2023-05-29T20:00:15;96126.19;;;17.73;37.94
31775;BME280;66189;49.000;11.640;2023-05-29T20:02:16;96131.41;;;17.46;37.39
31775;BME280;66189;49.000;11.640;2023-05-29T20:04:16;96137.63;;;17.47;37.79
31775;BME280;66189;49.000;11.640;2023-05-29T20:06:17;96137.59;;;17.54;38.02
31775;BME280;66189;49.000;11.640;2023-05-29T20:08:17;96142.19;;;17.61;39.35
31775;BME280;66189;49.000;11.640;2023-05-29T20:10:18;96141.44;;;17.56;39.21
31775;BME280;66189;49.000;11.640;2023-05-29T20:12:18;96140.69;;;17.52;39.97
31775;BME280;66189;49.000;11.640;2023-05-29T20:14:19;96152.81;;;17.40;41.02
31775;BME280;66189;49.000;11.640;2023-05-29T20:16:19;96158.63;;;17.43;40.59
31775;BME280;66189;49.000;11.640;2023-05-29T20:18:20;96157.91;;;17.31;41.75
31775;BME280;66189;49.000;11.640;2023-05-29T20:20:20;96157.56;;;17.22;40.35
31775;BME280;66189;49.000;11.640;2023-05-29T20:22:21;96152.59;;;17.10;39.18
31775;BME280;66189;49.000;11.640;2023-05-29T20:24:21;96153.41;;;16.92;39.18
31775;BME280;66189;49.000;11.640;2023-05-29T20:26:21;96145.69;;;16.87;40.19
31775;BME280;66189;49.000;11.640;2023-05-29T20:28:22;96148.78;;;16.71;40.04
31775;BME280;66189;49.000;11.640;2023-05-29T20:30:26;96155.00;;;16.61;39.44
31775;BME280;66189;49.000;11.640;2023-05-29T20:32:26;96157.00;;;16.31;41.95
31775;BME280;66189;49.000;11.640;2023-05-29T20:34:27;96158.56;;;16.11;43.26
31775;BME280;66189;49.000;11.640;2023-05-29T20:36:27;96160.91;;;16.27;43.16
31775;BME280;66189;49.000;11.640;2023-05-29T20:38:30;96163.25;;;16.25;41.72
31775;BME280;66189;49.000;11.640;2023-05-29T20:40:31;96167.09;;;16.24;41.13
31775;BME280;66189;49.000;11.640;2023-05-29T20:42:32;96168.28;;;16.26;42.29
31775;BME280;66189;49.000;11.640;2023-05-29T20:44:33;96164.00;;;16.18;43.50
31775;BME280;66189;49.000;11.640;2023-05-29T20:46:35;96163.63;;;16.20;44.42
31775;BME280;66189;49.000;11.640;2023-05-29T20:48:36;96170.22;;;16.11;43.94
31775;BME280;66189;49.000;11.640;2023-05-29T20:50:36;96183.41;;;16.02;43.43
31775;BME280;66189;49.000;11.640;2023-05-29T20:52:37;96173.69;;;16.01;43.65
31775;BME280;66189;49.000;11.640;2023-05-29T20:54:38;96182.59;;;15.87;44.14
31775;BME280;66189;49.000;11.640;2023-05-29T20:56:38;96172.91;;;15.86;45.49
31775;BME280;66189;49.000;11.640;2023-05-29T20:58:39;96178.66;;;15.63;45.31
31775;BME280;66189;49.000;11.640;2023-05-29T21:00:40;96181.75;;;15.51;46.20
31775;BME280;66189;49.000;11.640;2023-05-29T21:02:41;96186.00;;;15.44;46.34
31775;BME280;66189;49.000;11.640;2023-05-29T21:04:42;96182.09;;;15.42;47.32
31775;BME280;66189;49.000;11.640;2023-05-29T21:06:42;96183.63;;;15.36;47.02
31775;BME280;66189;49.000;11.640;2023-05-29T21:08:43;96178.97;;;15.29;47.70
31775;BME280;66189;49.000;11.640;2023-05-29T21:10:44;96183.63;;;15.39;47.56
31775;BME280;66189;49.000;11.640;2023-05-29T21:12:45;96186.00;;;15.48;47.30
31775;BME280;66189;49.000;11.640;2023-05-29T21:14:46;96188.34;;;15.57;47.15
31775;BME280;66189;49.000;11.640;2023-05-29T21:16:46;96187.19;;;15.58;46.90
31775;BME280;66189;49.000;11.640;2023-05-29T21:18:47;96182.53;;;15.58;47.38
31775;BME280;66189;49.000;11.640;2023-05-29T21:20:48;96186.78;;;15.52;47.97
31775;BME280;66189;49.000;11.640;2023-05-29T21:22:48;96179.38;;;15.42;47.94
31775;BME280;66189;49.000;11.640;2023-05-29T21:24:49;96187.13;;;15.43;48.21
31775;BME280;66189;49.000;11.640;2023-05-29T21:26:49;96187.91;;;15.40;48.27
31775;BME280;66189;49.000;11.640;2023-05-29T21:28:50;96183.22;;;15.26;49.37
31775;BME280;66189;49.000;11.640;2023-05-29T21:30:51;96181.63;;;15.11;49.60
31775;BME280;66189;49.000;11.640;2023-05-29T21:32:51;96188.59;;;15.16;49.91
31775;BME280;66189;49.000;11.640;2023-05-29T21:34:52;96187.81;;;15.12;49.97
31775;BME280;66189;49.000;11.640;2023-05-29T21:36:53;96180.06;;;15.06;49.87
31775;BME280;66189;49.000;11.640;2023-05-29T21:38:53;96180.72;;;14.85;51.23
31775;BME280;66189;49.000;11.640;2023-05-29T21:40:53;96180.75;;;14.89;51.27
31775;BME280;66189;49.000;11.640;2023-05-29T21:42:55;96184.22;;;14.86;51.66
31775;BME280;66189;49.000;11.640;2023-05-29T21:44:56;96178.84;;;14.93;51.68
31775;BME280;66189;49.000;11.640;2023-05-29T21:46:56;96180.34;;;14.87;51.73
31775;BME280;66189;49.000;11.640;2023-05-29T21:48:57;96184.22;;;14.86;52.50
31775;BME280;66189;49.000;11.640;2023-05-29T21:50:57;96188.84;;;14.85;52.25
31775;BME280;66189;49.000;11.640;2023-05-29T21:52:58;96184.97;;;14.86;52.55
31775;BME280;66189;49.000;11.640;2023-05-29T21:54:58;96188.13;;;14.96;51.99
31775;BME280;66189;49.000;11.640;2023-05-29T21:56:59;96200.88;;;14.91;51.40
31775;BME280;66189;49.000;11.640;2023-05-29T21:58:59;96195.84;;;14.90;51.73
31775;BME280;66189;49.000;11.640;2023-05-29T22:01:00;96204.38;;;14.96;51.34
31775;BME280;66189;49.000;11.640;2023-05-29T22:03:01;96201.66;;;14.92;51.75
31775;BME280;66189;49.000;11.640;2023-05-29T22:05:01;96204.34;;;14.88;52.00
31775;BME280;66189;49.000;11.640;2023-05-29T22:07:02;96204.31;;;14.85;51.45
31775;BME280;66189;49.000;11.640;2023-05-29T22:09:03;96199.31;;;14.90;51.35
31775;BME280;66189;49.000;11.640;2023-05-29T22:11:04;96194.28;;;14.85;51.39
31775;BME280;66189;49.000;11.640;2023-05-29T22:13:05;96198.88;;;14.78;52.18
31775;BME280;66189;49.000;11.640;2023-05-29T22:15:06;96196.53;;;14.76;51.92
31775;BME280;66189;49.000;11.640;2023-05-29T22:17:07;96198.88;;;14.81;52.01
31775;BME280;66189;49.000;11.640;2023-05-29T22:19:09;96199.50;;;14.60;52.54
31775;BME280;66189;49.000;11.640;2023-05-29T22:21:10;96194.06;;;14.56;53.10
31775;BME280;66189;49.000;11.640;2023-05-29T22:23:12;96201.69;;;14.40;53.13
31775;BME280;66189;49.000;11.640;2023-05-29T22:25:13;96203.19;;;14.34;52.92
31775;BME280;66189;49.000;11.640;2023-05-29T22:27:14;96194.22;;;14.22;53.60
31775;BME280;66189;49.000;11.640;2023-05-29T22:29:15;96208.97;;;14.29;52.84
31775;BME280;66189;49.000;11.640;2023-05-29T22:31:15;96198.31;;;14.02;53.91
31775;BME280;66189;49.000;11.640;2023-05-29T22:33:17;96201.47;;;14.08;53.62
31775;BME280;66189;49.000;11.640;2023-05-29T22:35:17;96198.41;;;14.16;53.21
31775;BME280;66189;49.000;11.640;2023-05-29T22:37:17;96200.28;;;14.09;53.68